Forside
METAR-TAF:

METAR-TAF

Lufthavne :

Gamèti, Northwest Territories, Canada

Breddekreds: 64-06-58N, længdekreds: 117-18-35W, højde: 221 m

Aktuelle vejr

Denne rapport blev lavet for 3 timer og 48 minutter siden, kl. 21:00 UTC
Vind 4 kt fra sydøst
Temperatur -27°C
Fugtighed 62%
Tryk 1038 hPa
Sigt: 24.1 km
skyfri

METAR: CYRA 232100Z 14004KT 15SM SKC M27/M32 A3064 RMK S0 AFT 16UTC/LAST STFD OBS/NEXT 241500 UTC SLP416

Tid: 17:48 (00:48 UTC)

Vejrudsigter

Denne rapport blev lavet for 6 timer og 57 minutter siden, kl. 17:51 UTC
Foreløbig gælder fra 23 på 18 UTC til 23 på 21 UTC
Vind 3 kt fra varierende retninger
Sigt: 10 km
skyfri

TAF: CYRA 231751Z 2318/2321 VRB03KT P6SM SKC RMK NXT FCST WILL BE ISSUED AT 241645Z

Vejrobservationer og prognoser fra mere end 4000 lufthavne (METAR og TAF).

De gule og røde prikker repræsenterer de meteorologiske stationer.

Flyt musen over at se navnet på stationen.

Så klik over at se vejr observationer og prognoser.

At skifte det kort: Klik på de grønne knapper med et sort kors for at zoome ind; på den grønne knap med en bindestreg for at zoome ud; eller på de grønne pile for tilstødende kort.


METAR-TAF: